sensor_id;sensor_type;location;lat;lon;timestamp;temperature;humidity
23237;DHT22;11787;52.018;8.570;2022-12-22T00:04:37;8.00;99.90
23237;DHT22;11787;52.018;8.570;2022-12-22T00:07:22;8.10;99.90
23237;DHT22;11787;52.018;8.570;2022-12-22T00:10:07;8.10;99.90
23237;DHT22;11787;52.018;8.570;2022-12-22T00:12:51;8.10;99.90
23237;DHT22;11787;52.018;8.570;2022-12-22T00:15:35;8.20;99.90
23237;DHT22;11787;52.018;8.570;2022-12-22T00:18:19;8.20;99.90
23237;DHT22;11787;52.018;8.570;2022-12-22T00:21:03;8.20;99.90
23237;DHT22;11787;52.018;8.570;2022-12-22T00:23:47;8.20;99.90
23237;DHT22;11787;52.018;8.570;2022-12-22T00:26:33;8.20;99.90
23237;DHT22;11787;52.018;8.570;2022-12-22T00:29:18;8.20;99.90
23237;DHT22;11787;52.018;8.570;2022-12-22T00:32:03;8.20;99.90
23237;DHT22;11787;52.018;8.570;2022-12-22T00:34:48;8.20;99.90
23237;DHT22;11787;52.018;8.570;2022-12-22T00:37:35;8.20;99.90
23237;DHT22;11787;52.018;8.570;2022-12-22T00:40:27;8.30;99.90
23237;DHT22;11787;52.018;8.570;2022-12-22T00:43:12;8.30;99.90
23237;DHT22;11787;52.018;8.570;2022-12-22T00:49:18;8.40;99.90
23237;DHT22;11787;52.018;8.570;2022-12-22T00:52:03;8.30;99.90
23237;DHT22;11787;52.018;8.570;2022-12-22T00:54:49;8.40;99.90
23237;DHT22;11787;52.018;8.570;2022-12-22T00:57:35;8.40;99.90
23237;DHT22;11787;52.018;8.570;2022-12-22T01:00:19;8.40;99.90
23237;DHT22;11787;52.018;8.570;2022-12-22T01:03:03;8.40;99.90
23237;DHT22;11787;52.018;8.570;2022-12-22T01:05:48;8.40;99.90
23237;DHT22;11787;52.018;8.570;2022-12-22T01:08:33;8.40;99.90
23237;DHT22;11787;52.018;8.570;2022-12-22T01:11:18;8.40;99.90
23237;DHT22;11787;52.018;8.570;2022-12-22T01:14:02;8.40;99.90
23237;DHT22;11787;52.018;8.570;2022-12-22T01:16:46;8.40;99.90
23237;DHT22;11787;52.018;8.570;2022-12-22T01:19:30;8.50;99.90
23237;DHT22;11787;52.018;8.570;2022-12-22T01:22:17;8.50;99.90
23237;DHT22;11787;52.018;8.570;2022-12-22T01:25:13;8.50;99.90
23237;DHT22;11787;52.018;8.570;2022-12-22T01:27:58;8.50;99.90
23237;DHT22;11787;52.018;8.570;2022-12-22T01:30:42;8.50;99.90
23237;DHT22;11787;52.018;8.570;2022-12-22T01:33:26;8.50;99.90
23237;DHT22;11787;52.018;8.570;2022-12-22T01:36:11;8.40;99.90
23237;DHT22;11787;52.018;8.570;2022-12-22T01:38:55;8.40;99.90
23237;DHT22;11787;52.018;8.570;2022-12-22T01:41:39;8.30;99.90
23237;DHT22;11787;52.018;8.570;2022-12-22T01:44:23;8.40;99.90
23237;DHT22;11787;52.018;8.570;2022-12-22T01:50:14;8.50;99.90
23237;DHT22;11787;52.018;8.570;2022-12-22T01:52:58;8.40;99.90
23237;DHT22;11787;52.018;8.570;2022-12-22T01:55:44;8.50;99.90
23237;DHT22;11787;52.018;8.570;2022-12-22T01:58:34;8.50;99.90
23237;DHT22;11787;52.018;8.570;2022-12-22T02:01:19;8.50;99.90
23237;DHT22;11787;52.018;8.570;2022-12-22T02:04:03;8.50;99.90
23237;DHT22;11787;52.018;8.570;2022-12-22T02:06:51;8.50;99.90
23237;DHT22;11787;52.018;8.570;2022-12-22T02:09:38;8.50;99.90
23237;DHT22;11787;52.018;8.570;2022-12-22T02:12:50;8.60;99.90
23237;DHT22;11787;52.018;8.570;2022-12-22T02:16:01;8.60;99.90
23237;DHT22;11787;52.018;8.570;2022-12-22T02:22:04;8.60;99.90
23237;DHT22;11787;52.018;8.570;2022-12-22T02:24:58;8.60;99.90
23237;DHT22;11787;52.018;8.570;2022-12-22T02:27:46;8.60;99.90
23237;DHT22;11787;52.018;8.570;2022-12-22T02:30:32;8.60;99.90
23237;DHT22;11787;52.018;8.570;2022-12-22T02:33:17;8.60;99.90
23237;DHT22;11787;52.018;8.570;2022-12-22T02:36:56;8.60;99.90
23237;DHT22;11787;52.018;8.570;2022-12-22T02:43:22;8.60;99.90
23237;DHT22;11787;52.018;8.570;2022-12-22T02:46:30;8.60;99.90
23237;DHT22;11787;52.018;8.570;2022-12-22T02:49:21;8.50;99.90
23237;DHT22;11787;52.018;8.570;2022-12-22T02:52:21;8.60;99.90
23237;DHT22;11787;52.018;8.570;2022-12-22T02:55:07;8.60;99.90
23237;DHT22;11787;52.018;8.570;2022-12-22T02:57:51;8.60;99.90
23237;DHT22;11787;52.018;8.570;2022-12-22T03:00:37;8.60;99.90
23237;DHT22;11787;52.018;8.570;2022-12-22T03:03:22;8.60;99.90
23237;DHT22;11787;52.018;8.570;2022-12-22T03:06:06;8.60;99.90
23237;DHT22;11787;52.018;8.570;2022-12-22T03:08:49;8.60;99.90
23237;DHT22;11787;52.018;8.570;2022-12-22T03:11:34;8.60;99.90
23237;DHT22;11787;52.018;8.570;2022-12-22T03:14:18;8.60;99.90
23237;DHT22;11787;52.018;8.570;2022-12-22T03:17:02;8.60;99.90
23237;DHT22;11787;52.018;8.570;2022-12-22T03:19:46;8.60;99.90
23237;DHT22;11787;52.018;8.570;2022-12-22T03:22:30;8.60;99.90
23237;DHT22;11787;52.018;8.570;2022-12-22T03:25:14;8.60;99.90
23237;DHT22;11787;52.018;8.570;2022-12-22T03:28:03;8.60;99.90
23237;DHT22;11787;52.018;8.570;2022-12-22T03:30:29;8.60;99.90
23237;DHT22;11787;52.018;8.570;2022-12-22T03:32:55;8.60;99.90
23237;DHT22;11787;52.018;8.570;2022-12-22T03:35:20;8.60;99.90
23237;DHT22;11787;52.018;8.570;2022-12-22T03:37:46;8.60;99.90
23237;DHT22;11787;52.018;8.570;2022-12-22T03:40:11;8.60;99.90
23237;DHT22;11787;52.018;8.570;2022-12-22T03:42:37;8.60;99.90
23237;DHT22;11787;52.018;8.570;2022-12-22T03:45:21;8.60;99.90
23237;DHT22;11787;52.018;8.570;2022-12-22T03:48:05;8.60;99.90
23237;DHT22;11787;52.018;8.570;2022-12-22T03:50:31;8.60;99.90
23237;DHT22;11787;52.018;8.570;2022-12-22T03:52:56;8.60;99.90
23237;DHT22;11787;52.018;8.570;2022-12-22T03:55:22;8.70;99.90
23237;DHT22;11787;52.018;8.570;2022-12-22T03:57:47;8.60;99.90
23237;DHT22;11787;52.018;8.570;2022-12-22T04:00:13;8.60;99.90
23237;DHT22;11787;52.018;8.570;2022-12-22T04:02:39;8.60;99.90
23237;DHT22;11787;52.018;8.570;2022-12-22T04:05:05;8.60;99.90
23237;DHT22;11787;52.018;8.570;2022-12-22T04:07:30;8.70;99.90
23237;DHT22;11787;52.018;8.570;2022-12-22T04:09:56;8.60;99.90
23237;DHT22;11787;52.018;8.570;2022-12-22T04:12:40;8.60;99.90
23237;DHT22;11787;52.018;8.570;2022-12-22T04:15:18;8.70;99.90
23237;DHT22;11787;52.018;8.570;2022-12-22T04:17:44;8.70;99.90
23237;DHT22;11787;52.018;8.570;2022-12-22T04:20:10;8.70;99.90
23237;DHT22;11787;52.018;8.570;2022-12-22T04:22:36;8.70;99.90
23237;DHT22;11787;52.018;8.570;2022-12-22T04:25:01;8.70;99.90
23237;DHT22;11787;52.018;8.570;2022-12-22T04:27:27;8.70;99.90
23237;DHT22;11787;52.018;8.570;2022-12-22T04:29:52;8.70;99.90
23237;DHT22;11787;52.018;8.570;2022-12-22T04:32:18;8.60;99.90
23237;DHT22;11787;52.018;8.570;2022-12-22T04:34:43;8.70;99.90
23237;DHT22;11787;52.018;8.570;2022-12-22T04:37:09;8.70;99.90
23237;DHT22;11787;52.018;8.570;2022-12-22T04:39:34;8.70;99.90
23237;DHT22;11787;52.018;8.570;2022-12-22T04:42:00;8.70;99.90
23237;DHT22;11787;52.018;8.570;2022-12-22T04:44:25;8.70;99.90
23237;DHT22;11787;52.018;8.570;2022-12-22T04:46:51;8.70;99.90
23237;DHT22;11787;52.018;8.570;2022-12-22T04:49:16;8.70;99.90
23237;DHT22;11787;52.018;8.570;2022-12-22T04:51:42;8.70;99.90
23237;DHT22;11787;52.018;8.570;2022-12-22T04:54:08;8.70;99.90
23237;DHT22;11787;52.018;8.570;2022-12-22T04:56:33;8.70;99.90
23237;DHT22;11787;52.018;8.570;2022-12-22T04:58:59;8.70;99.90
23237;DHT22;11787;52.018;8.570;2022-12-22T05:01:24;8.70;99.90
23237;DHT22;11787;52.018;8.570;2022-12-22T05:03:50;8.70;99.90
23237;DHT22;11787;52.018;8.570;2022-12-22T05:06:15;8.70;99.90
23237;DHT22;11787;52.018;8.570;2022-12-22T05:08:41;8.80;99.90
23237;DHT22;11787;52.018;8.570;2022-12-22T05:11:07;8.80;99.90
23237;DHT22;11787;52.018;8.570;2022-12-22T05:13:32;8.70;99.90
23237;DHT22;11787;52.018;8.570;2022-12-22T05:16:07;8.80;99.90
23237;DHT22;11787;52.018;8.570;2022-12-22T05:18:34;8.80;99.90
23237;DHT22;11787;52.018;8.570;2022-12-22T05:21:05;8.80;99.90
23237;DHT22;11787;52.018;8.570;2022-12-22T05:23:31;8.70;99.90
23237;DHT22;11787;52.018;8.570;2022-12-22T05:25:57;8.70;99.90
23237;DHT22;11787;52.018;8.570;2022-12-22T05:28:23;8.80;99.90
23237;DHT22;11787;52.018;8.570;2022-12-22T05:30:48;8.70;99.90
23237;DHT22;11787;52.018;8.570;2022-12-22T05:33:14;8.70;99.90
23237;DHT22;11787;52.018;8.570;2022-12-22T05:35:39;8.80;99.90
23237;DHT22;11787;52.018;8.570;2022-12-22T05:38:05;8.70;99.90
23237;DHT22;11787;52.018;8.570;2022-12-22T05:40:31;8.70;99.90
23237;DHT22;11787;52.018;8.570;2022-12-22T05:42:56;8.70;99.90
23237;DHT22;11787;52.018;8.570;2022-12-22T05:45:22;8.70;99.90
23237;DHT22;11787;52.018;8.570;2022-12-22T05:47:50;8.70;99.90
23237;DHT22;11787;52.018;8.570;2022-12-22T05:50:18;8.70;99.90
23237;DHT22;11787;52.018;8.570;2022-12-22T05:52:44;8.70;99.90
23237;DHT22;11787;52.018;8.570;2022-12-22T05:55:10;8.70;99.90
23237;DHT22;11787;52.018;8.570;2022-12-22T05:57:36;8.70;99.90
23237;DHT22;11787;52.018;8.570;2022-12-22T06:00:07;8.60;99.90
23237;DHT22;11787;52.018;8.570;2022-12-22T06:02:32;8.60;99.90
23237;DHT22;11787;52.018;8.570;2022-12-22T06:04:58;8.60;99.90
23237;DHT22;11787;52.018;8.570;2022-12-22T06:07:24;8.60;99.90
23237;DHT22;11787;52.018;8.570;2022-12-22T06:09:49;8.60;99.90
23237;DHT22;11787;52.018;8.570;2022-12-22T06:12:15;8.60;99.90
23237;DHT22;11787;52.018;8.570;2022-12-22T06:14:40;8.50;99.90
23237;DHT22;11787;52.018;8.570;2022-12-22T06:17:06;8.60;99.90
23237;DHT22;11787;52.018;8.570;2022-12-22T06:19:32;8.50;99.90
23237;DHT22;11787;52.018;8.570;2022-12-22T06:21:57;8.60;99.90
23237;DHT22;11787;52.018;8.570;2022-12-22T06:24:23;8.60;99.90
23237;DHT22;11787;52.018;8.570;2022-12-22T06:26:49;8.50;99.90
23237;DHT22;11787;52.018;8.570;2022-12-22T06:29:14;8.60;99.90
23237;DHT22;11787;52.018;8.570;2022-12-22T06:31:40;8.60;99.90
23237;DHT22;11787;52.018;8.570;2022-12-22T06:34:07;8.50;99.90
23237;DHT22;11787;52.018;8.570;2022-12-22T06:36:32;8.50;99.90
23237;DHT22;11787;52.018;8.570;2022-12-22T06:38:58;8.50;99.90
23237;DHT22;11787;52.018;8.570;2022-12-22T06:41:24;8.40;99.90
23237;DHT22;11787;52.018;8.570;2022-12-22T06:44:08;8.40;99.90
23237;DHT22;11787;52.018;8.570;2022-12-22T06:46:34;8.40;99.90
23237;DHT22;11787;52.018;8.570;2022-12-22T06:48:59;8.40;99.90
23237;DHT22;11787;52.018;8.570;2022-12-22T06:51:25;8.40;99.90
23237;DHT22;11787;52.018;8.570;2022-12-22T06:53:50;8.40;99.90
23237;DHT22;11787;52.018;8.570;2022-12-22T06:56:16;8.30;99.90
23237;DHT22;11787;52.018;8.570;2022-12-22T06:58:42;8.30;99.90
23237;DHT22;11787;52.018;8.570;2022-12-22T07:01:07;8.30;99.90
23237;DHT22;11787;52.018;8.570;2022-12-22T07:03:33;8.30;99.90
23237;DHT22;11787;52.018;8.570;2022-12-22T07:05:58;8.30;99.90
23237;DHT22;11787;52.018;8.570;2022-12-22T07:08:24;8.40;99.90
23237;DHT22;11787;52.018;8.570;2022-12-22T07:10:50;8.40;99.90
23237;DHT22;11787;52.018;8.570;2022-12-22T07:13:31;8.40;99.90
23237;DHT22;11787;52.018;8.570;2022-12-22T07:19:20;8.40;99.90
23237;DHT22;11787;52.018;8.570;2022-12-22T07:21:45;8.40;99.90
23237;DHT22;11787;52.018;8.570;2022-12-22T07:24:15;8.40;99.90
23237;DHT22;11787;52.018;8.570;2022-12-22T07:26:47;8.40;99.90
23237;DHT22;11787;52.018;8.570;2022-12-22T07:29:13;8.40;99.90
23237;DHT22;11787;52.018;8.570;2022-12-22T07:31:38;8.40;99.90
23237;DHT22;11787;52.018;8.570;2022-12-22T07:34:04;8.40;99.90
23237;DHT22;11787;52.018;8.570;2022-12-22T07:36:29;8.40;99.90
23237;DHT22;11787;52.018;8.570;2022-12-22T07:38:55;8.40;99.90
23237;DHT22;11787;52.018;8.570;2022-12-22T07:41:21;8.40;99.90
23237;DHT22;11787;52.018;8.570;2022-12-22T07:44:05;8.30;99.90
23237;DHT22;11787;52.018;8.570;2022-12-22T07:46:35;8.30;99.90
23237;DHT22;11787;52.018;8.570;2022-12-22T07:49:01;8.30;99.90
23237;DHT22;11787;52.018;8.570;2022-12-22T07:51:45;8.40;99.90
23237;DHT22;11787;52.018;8.570;2022-12-22T07:54:13;8.40;99.90
23237;DHT22;11787;52.018;8.570;2022-12-22T07:56:39;8.30;99.90
23237;DHT22;11787;52.018;8.570;2022-12-22T07:59:05;8.30;99.90
23237;DHT22;11787;52.018;8.570;2022-12-22T08:01:30;8.40;99.90
23237;DHT22;11787;52.018;8.570;2022-12-22T08:03:56;8.30;99.90
23237;DHT22;11787;52.018;8.570;2022-12-22T08:06:23;8.40;99.90
23237;DHT22;11787;52.018;8.570;2022-12-22T08:08:48;8.30;99.90
23237;DHT22;11787;52.018;8.570;2022-12-22T08:11:14;8.40;99.90
23237;DHT22;11787;52.018;8.570;2022-12-22T08:13:40;8.30;99.90
23237;DHT22;11787;52.018;8.570;2022-12-22T08:16:09;8.40;99.90
23237;DHT22;11787;52.018;8.570;2022-12-22T08:18:36;8.40;99.90
23237;DHT22;11787;52.018;8.570;2022-12-22T08:21:02;8.40;99.90
23237;DHT22;11787;52.018;8.570;2022-12-22T08:23:28;8.40;99.90
23237;DHT22;11787;52.018;8.570;2022-12-22T08:26:19;8.50;99.90
23237;DHT22;11787;52.018;8.570;2022-12-22T08:28:52;8.40;99.90
23237;DHT22;11787;52.018;8.570;2022-12-22T08:34:41;8.50;99.90
23237;DHT22;11787;52.018;8.570;2022-12-22T08:40:35;8.50;99.90
23237;DHT22;11787;52.018;8.570;2022-12-22T08:43:06;8.50;99.90
23237;DHT22;11787;52.018;8.570;2022-12-22T08:45:33;8.60;99.90
23237;DHT22;11787;52.018;8.570;2022-12-22T08:47:59;8.60;99.90
23237;DHT22;11787;52.018;8.570;2022-12-22T08:50:24;8.60;99.90
23237;DHT22;11787;52.018;8.570;2022-12-22T08:52:50;8.50;99.90
23237;DHT22;11787;52.018;8.570;2022-12-22T08:55:16;8.50;99.90
23237;DHT22;11787;52.018;8.570;2022-12-22T08:57:41;8.50;99.90
23237;DHT22;11787;52.018;8.570;2022-12-22T09:00:08;8.50;99.90
23237;DHT22;11787;52.018;8.570;2022-12-22T09:02:35;8.50;99.90
23237;DHT22;11787;52.018;8.570;2022-12-22T09:05:00;8.60;99.90
23237;DHT22;11787;52.018;8.570;2022-12-22T09:07:26;8.50;99.90
23237;DHT22;11787;52.018;8.570;2022-12-22T09:09:52;8.60;99.90
23237;DHT22;11787;52.018;8.570;2022-12-22T09:12:18;8.60;99.90
23237;DHT22;11787;52.018;8.570;2022-12-22T09:14:44;8.60;99.90
23237;DHT22;11787;52.018;8.570;2022-12-22T09:17:10;8.60;99.90
23237;DHT22;11787;52.018;8.570;2022-12-22T09:19:35;8.70;99.90
23237;DHT22;11787;52.018;8.570;2022-12-22T09:22:01;8.70;99.90
23237;DHT22;11787;52.018;8.570;2022-12-22T09:24:27;8.80;99.90
23237;DHT22;11787;52.018;8.570;2022-12-22T09:26:52;8.80;99.90
23237;DHT22;11787;52.018;8.570;2022-12-22T09:29:18;8.80;99.90
23237;DHT22;11787;52.018;8.570;2022-12-22T09:31:44;8.90;99.90
23237;DHT22;11787;52.018;8.570;2022-12-22T09:34:10;8.90;99.90
23237;DHT22;11787;52.018;8.570;2022-12-22T09:36:39;8.80;99.90
23237;DHT22;11787;52.018;8.570;2022-12-22T09:39:07;9.00;99.90
23237;DHT22;11787;52.018;8.570;2022-12-22T09:44:54;9.10;99.90
23237;DHT22;11787;52.018;8.570;2022-12-22T09:47:34;9.10;99.90
23237;DHT22;11787;52.018;8.570;2022-12-22T09:50:03;9.10;99.90
23237;DHT22;11787;52.018;8.570;2022-12-22T09:55:51;9.20;99.90
23237;DHT22;11787;52.018;8.570;2022-12-22T10:00:50;9.20;99.90
23237;DHT22;11787;52.018;8.570;2022-12-22T10:03:29;9.20;99.90
23237;DHT22;11787;52.018;8.570;2022-12-22T10:08:32;9.30;99.90
23237;DHT22;11787;52.018;8.570;2022-12-22T10:14:20;9.30;99.90
23237;DHT22;11787;52.018;8.570;2022-12-22T10:16:46;9.40;99.90
23237;DHT22;11787;52.018;8.570;2022-12-22T10:22:39;9.40;99.90
23237;DHT22;11787;52.018;8.570;2022-12-22T10:25:36;9.40;99.90
23237;DHT22;11787;52.018;8.570;2022-12-22T10:28:08;9.40;99.90
23237;DHT22;11787;52.018;8.570;2022-12-22T10:30:38;9.40;99.90
23237;DHT22;11787;52.018;8.570;2022-12-22T10:35:56;9.50;99.90
23237;DHT22;11787;52.018;8.570;2022-12-22T10:38:31;9.40;99.90
23237;DHT22;11787;52.018;8.570;2022-12-22T10:41:11;9.40;99.90
23237;DHT22;11787;52.018;8.570;2022-12-22T10:43:44;9.40;99.90
23237;DHT22;11787;52.018;8.570;2022-12-22T10:46:11;9.40;99.90
23237;DHT22;11787;52.018;8.570;2022-12-22T10:48:38;9.50;99.90
23237;DHT22;11787;52.018;8.570;2022-12-22T10:51:09;9.40;99.90
23237;DHT22;11787;52.018;8.570;2022-12-22T10:53:51;9.50;99.90
23237;DHT22;11787;52.018;8.570;2022-12-22T10:56:27;9.50;99.90
23237;DHT22;11787;52.018;8.570;2022-12-22T11:04:50;9.40;99.90
23237;DHT22;11787;52.018;8.570;2022-12-22T11:07:17;9.40;99.90
23237;DHT22;11787;52.018;8.570;2022-12-22T11:09:42;9.30;99.90
23237;DHT22;11787;52.018;8.570;2022-12-22T11:39:06;9.30;99.90
23237;DHT22;11787;52.018;8.570;2022-12-22T11:41:47;9.30;99.90
23237;DHT22;11787;52.018;8.570;2022-12-22T11:45:18;9.30;99.90
23237;DHT22;11787;52.018;8.570;2022-12-22T11:47:39;9.40;99.90
23237;DHT22;11787;52.018;8.570;2022-12-22T11:55:28;9.50;99.90
23237;DHT22;11787;52.018;8.570;2022-12-22T12:01:30;9.40;99.90
23237;DHT22;11787;52.018;8.570;2022-12-22T12:07:27;9.30;99.90
23237;DHT22;11787;52.018;8.570;2022-12-22T12:10:26;9.30;99.90
23237;DHT22;11787;52.018;8.570;2022-12-22T12:16:41;9.30;99.90
23237;DHT22;11787;52.018;8.570;2022-12-22T12:22:13;9.30;99.90
23237;DHT22;11787;52.018;8.570;2022-12-22T12:30:55;9.30;99.90
23237;DHT22;11787;52.018;8.570;2022-12-22T12:33:46;9.30;99.90
23237;DHT22;11787;52.018;8.570;2022-12-22T12:39:13;9.30;99.90
23237;DHT22;11787;52.018;8.570;2022-12-22T12:44:43;9.30;99.90
23237;DHT22;11787;52.018;8.570;2022-12-22T12:47:41;9.30;99.90
23237;DHT22;11787;52.018;8.570;2022-12-22T12:57:49;9.40;99.90
23237;DHT22;11787;52.018;8.570;2022-12-22T13:05:57;9.50;99.90
23237;DHT22;11787;52.018;8.570;2022-12-22T13:08:30;9.50;99.90
23237;DHT22;11787;52.018;8.570;2022-12-22T13:21:01;9.40;99.90
23237;DHT22;11787;52.018;8.570;2022-12-22T13:23:39;9.30;99.90
23237;DHT22;11787;52.018;8.570;2022-12-22T13:35:28;11.00;99.90
23237;DHT22;11787;52.018;8.570;2022-12-22T13:37:54;11.00;99.90
23237;DHT22;11787;52.018;8.570;2022-12-22T13:40:24;11.40;99.90
23237;DHT22;11787;52.018;8.570;2022-12-22T13:42:59;11.70;99.90
23237;DHT22;11787;52.018;8.570;2022-12-22T13:51:29;11.10;99.90
23237;DHT22;11787;52.018;8.570;2022-12-22T13:53:59;10.30;99.90
23237;DHT22;11787;52.018;8.570;2022-12-22T13:59:24;9.60;99.90
23237;DHT22;11787;52.018;8.570;2022-12-22T14:01:56;9.40;99.90
23237;DHT22;11787;52.018;8.570;2022-12-22T14:04:22;9.30;99.90
23237;DHT22;11787;52.018;8.570;2022-12-22T14:06:48;9.20;99.90
23237;DHT22;11787;52.018;8.570;2022-12-22T14:09:26;9.10;99.90
23237;DHT22;11787;52.018;8.570;2022-12-22T14:12:02;9.10;99.90
23237;DHT22;11787;52.018;8.570;2022-12-22T14:14:35;9.10;99.90
23237;DHT22;11787;52.018;8.570;2022-12-22T14:17:02;9.00;99.90
23237;DHT22;11787;52.018;8.570;2022-12-22T14:19:33;8.90;99.90
23237;DHT22;11787;52.018;8.570;2022-12-22T14:22:07;8.90;99.90
23237;DHT22;11787;52.018;8.570;2022-12-22T14:27:56;8.80;99.90
23237;DHT22;11787;52.018;8.570;2022-12-22T14:33:17;8.80;99.90
23237;DHT22;11787;52.018;8.570;2022-12-22T14:36:23;8.70;99.90
23237;DHT22;11787;52.018;8.570;2022-12-22T14:38:54;8.70;99.90
23237;DHT22;11787;52.018;8.570;2022-12-22T14:41:34;8.60;99.90
23237;DHT22;11787;52.018;8.570;2022-12-22T14:52:33;8.50;99.90
23237;DHT22;11787;52.018;8.570;2022-12-22T14:55:02;8.50;99.90
23237;DHT22;11787;52.018;8.570;2022-12-22T14:57:37;8.50;99.90
23237;DHT22;11787;52.018;8.570;2022-12-22T15:00:29;8.40;99.90
23237;DHT22;11787;52.018;8.570;2022-12-22T15:02:58;8.40;99.90
23237;DHT22;11787;52.018;8.570;2022-12-22T15:05:30;8.40;99.90
23237;DHT22;11787;52.018;8.570;2022-12-22T15:07:57;8.30;99.90
23237;DHT22;11787;52.018;8.570;2022-12-22T15:10:25;8.30;99.90
23237;DHT22;11787;52.018;8.570;2022-12-22T15:12:56;8.20;99.90
23237;DHT22;11787;52.018;8.570;2022-12-22T15:15:22;8.20;99.90
23237;DHT22;11787;52.018;8.570;2022-12-22T15:17:50;8.20;99.90
23237;DHT22;11787;52.018;8.570;2022-12-22T15:20:24;8.20;99.90
23237;DHT22;11787;52.018;8.570;2022-12-22T15:22:51;8.10;99.90
23237;DHT22;11787;52.018;8.570;2022-12-22T15:25:19;8.10;99.90
23237;DHT22;11787;52.018;8.570;2022-12-22T15:27:45;8.10;99.90
23237;DHT22;11787;52.018;8.570;2022-12-22T15:30:13;8.00;99.90
23237;DHT22;11787;52.018;8.570;2022-12-22T15:32:40;8.00;99.90
23237;DHT22;11787;52.018;8.570;2022-12-22T15:35:18;8.00;99.90
23237;DHT22;11787;52.018;8.570;2022-12-22T15:37:45;8.00;99.90
23237;DHT22;11787;52.018;8.570;2022-12-22T15:40:24;8.00;99.90
23237;DHT22;11787;52.018;8.570;2022-12-22T15:42:50;7.90;99.90
23237;DHT22;11787;52.018;8.570;2022-12-22T15:48:38;7.90;99.90
23237;DHT22;11787;52.018;8.570;2022-12-22T15:51:07;7.90;99.90
23237;DHT22;11787;52.018;8.570;2022-12-22T15:53:34;7.80;99.90
23237;DHT22;11787;52.018;8.570;2022-12-22T15:56:01;7.90;99.90
23237;DHT22;11787;52.018;8.570;2022-12-22T15:58:31;7.80;99.90
23237;DHT22;11787;52.018;8.570;2022-12-22T16:00:57;7.80;99.90
23237;DHT22;11787;52.018;8.570;2022-12-22T16:03:22;7.80;99.90
23237;DHT22;11787;52.018;8.570;2022-12-22T16:05:48;7.80;99.90
23237;DHT22;11787;52.018;8.570;2022-12-22T16:08:20;7.80;99.90
23237;DHT22;11787;52.018;8.570;2022-12-22T16:10:48;7.80;99.90
23237;DHT22;11787;52.018;8.570;2022-12-22T16:13:15;7.70;99.90
23237;DHT22;11787;52.018;8.570;2022-12-22T16:15:41;7.70;99.90
23237;DHT22;11787;52.018;8.570;2022-12-22T16:18:09;7.70;99.90
23237;DHT22;11787;52.018;8.570;2022-12-22T16:20:38;7.70;99.90
23237;DHT22;11787;52.018;8.570;2022-12-22T16:23:05;7.70;99.90
23237;DHT22;11787;52.018;8.570;2022-12-22T16:25:35;7.60;99.90
23237;DHT22;11787;52.018;8.570;2022-12-22T16:28:02;7.60;99.90
23237;DHT22;11787;52.018;8.570;2022-12-22T16:30:29;7.60;99.90
23237;DHT22;11787;52.018;8.570;2022-12-22T16:32:56;7.50;99.90
23237;DHT22;11787;52.018;8.570;2022-12-22T16:35:23;7.50;99.90
23237;DHT22;11787;52.018;8.570;2022-12-22T16:37:50;7.50;99.90
23237;DHT22;11787;52.018;8.570;2022-12-22T16:40:18;7.50;99.90
23237;DHT22;11787;52.018;8.570;2022-12-22T16:45:27;7.50;99.90
23237;DHT22;11787;52.018;8.570;2022-12-22T16:47:57;7.50;99.90
23237;DHT22;11787;52.018;8.570;2022-12-22T16:50:26;7.50;99.90
23237;DHT22;11787;52.018;8.570;2022-12-22T16:52:59;7.50;99.90
23237;DHT22;11787;52.018;8.570;2022-12-22T16:58:47;7.50;99.90
23237;DHT22;11787;52.018;8.570;2022-12-22T17:07:15;7.60;99.90
23237;DHT22;11787;52.018;8.570;2022-12-22T17:09:52;7.60;99.90
23237;DHT22;11787;52.018;8.570;2022-12-22T17:12:25;7.60;99.90
23237;DHT22;11787;52.018;8.570;2022-12-22T17:14:51;7.60;99.90
23237;DHT22;11787;52.018;8.570;2022-12-22T17:17:19;7.60;99.90
23237;DHT22;11787;52.018;8.570;2022-12-22T17:19:49;7.60;99.90
23237;DHT22;11787;52.018;8.570;2022-12-22T17:22:31;7.60;99.90
23237;DHT22;11787;52.018;8.570;2022-12-22T17:25:02;7.70;99.90
23237;DHT22;11787;52.018;8.570;2022-12-22T17:27:30;7.70;99.90
23237;DHT22;11787;52.018;8.570;2022-12-22T17:29:59;7.70;99.90
23237;DHT22;11787;52.018;8.570;2022-12-22T17:32:25;7.70;99.90
23237;DHT22;11787;52.018;8.570;2022-12-22T17:34:51;7.80;99.90
23237;DHT22;11787;52.018;8.570;2022-12-22T17:37:19;7.80;99.90
23237;DHT22;11787;52.018;8.570;2022-12-22T17:39:49;7.80;99.90
23237;DHT22;11787;52.018;8.570;2022-12-22T17:45:37;7.80;99.90
23237;DHT22;11787;52.018;8.570;2022-12-22T17:48:03;7.80;99.90
23237;DHT22;11787;52.018;8.570;2022-12-22T17:50:29;7.80;99.90
23237;DHT22;11787;52.018;8.570;2022-12-22T17:56:19;7.80;99.90
23237;DHT22;11787;52.018;8.570;2022-12-22T17:58:45;7.80;99.90
23237;DHT22;11787;52.018;8.570;2022-12-22T18:01:28;7.70;99.90
23237;DHT22;11787;52.018;8.570;2022-12-22T18:07:19;7.80;99.90
23237;DHT22;11787;52.018;8.570;2022-12-22T18:13:19;7.70;99.90
23237;DHT22;11787;52.018;8.570;2022-12-22T18:15:45;7.70;99.90
23237;DHT22;11787;52.018;8.570;2022-12-22T18:18:16;7.70;99.90
23237;DHT22;11787;52.018;8.570;2022-12-22T18:24:04;7.70;99.90
23237;DHT22;11787;52.018;8.570;2022-12-22T18:29:52;7.70;99.90
23237;DHT22;11787;52.018;8.570;2022-12-22T18:32:17;7.70;99.90
23237;DHT22;11787;52.018;8.570;2022-12-22T18:34:43;7.70;99.90
23237;DHT22;11787;52.018;8.570;2022-12-22T18:37:13;7.70;99.90
23237;DHT22;11787;52.018;8.570;2022-12-22T18:43:02;7.70;99.90
23237;DHT22;11787;52.018;8.570;2022-12-22T18:45:29;7.70;99.90
23237;DHT22;11787;52.018;8.570;2022-12-22T18:47:56;7.70;99.90
23237;DHT22;11787;52.018;8.570;2022-12-22T18:50:26;7.70;99.90
23237;DHT22;11787;52.018;8.570;2022-12-22T18:52:56;7.70;99.90
23237;DHT22;11787;52.018;8.570;2022-12-22T18:55:31;7.70;99.90
23237;DHT22;11787;52.018;8.570;2022-12-22T18:57:58;7.70;99.90
23237;DHT22;11787;52.018;8.570;2022-12-22T19:00:30;7.70;99.90
23237;DHT22;11787;52.018;8.570;2022-12-22T19:03:00;7.70;99.90
23237;DHT22;11787;52.018;8.570;2022-12-22T19:05:28;7.60;99.90
23237;DHT22;11787;52.018;8.570;2022-12-22T19:07:54;7.70;99.90
23237;DHT22;11787;52.018;8.570;2022-12-22T19:12:49;7.60;99.90
23237;DHT22;11787;52.018;8.570;2022-12-22T19:15:31;7.60;99.90
23237;DHT22;11787;52.018;8.570;2022-12-22T19:17:57;7.60;99.90
23237;DHT22;11787;52.018;8.570;2022-12-22T19:20:24;7.60;99.90
23237;DHT22;11787;52.018;8.570;2022-12-22T19:22:50;7.60;99.90
23237;DHT22;11787;52.018;8.570;2022-12-22T19:28:40;7.60;99.90
23237;DHT22;11787;52.018;8.570;2022-12-22T19:31:07;7.60;99.90
23237;DHT22;11787;52.018;8.570;2022-12-22T19:33:38;7.60;99.90
23237;DHT22;11787;52.018;8.570;2022-12-22T19:36:06;7.60;99.90
23237;DHT22;11787;52.018;8.570;2022-12-22T19:38:32;7.60;99.90
23237;DHT22;11787;52.018;8.570;2022-12-22T19:41:02;7.60;99.90
23237;DHT22;11787;52.018;8.570;2022-12-22T19:43:29;7.60;99.90
23237;DHT22;11787;52.018;8.570;2022-12-22T19:45:54;7.60;99.90
23237;DHT22;11787;52.018;8.570;2022-12-22T19:51:42;7.60;99.90
23237;DHT22;11787;52.018;8.570;2022-12-22T19:54:08;7.60;99.90